Time;durP1;ratioP1;P1;durP2;ratioP2;P2;SDS_P1;SDS_P2;PMS_P1;PMS_P2;Temp;Humidity;BMP_temperature;BMP_pressure;BME280_temperature;BME280_humidity;BME280_pressure;Samples;Min_cycle;Max_cycle;Signal;HPM_P1;HPM_P2
2023/07/28 00:02:08;;;;;;;33.77;11.80;;;17.90;99.90;;;;;;5055389;28;20041;-72
2023/07/28 00:04:35;;;;;;;38.43;12.07;;;17.90;99.90;;;;;;5047431;28;20033;-72
2023/07/28 00:07:00;;;;;;;29.67;12.50;;;17.90;99.90;;;;;;5040366;28;20041;-72
2023/07/28 00:09:26;;;;;;;30.93;12.80;;;17.90;99.90;;;;;;5046383;28;20073;-73
2023/07/28 00:11:52;;;;;;;30.50;12.37;;;17.90;99.90;;;;;;5042953;28;20063;-72
2023/07/28 00:14:18;;;;;;;28.47;12.80;;;17.90;99.90;;;;;;5046853;28;20083;-72
2023/07/28 00:16:44;;;;;;;31.40;13.27;;;17.90;99.90;;;;;;5041954;28;20033;-72
2023/07/28 00:19:09;;;;;;;35.70;12.50;;;17.90;99.90;;;;;;5034257;28;20051;-73
2023/07/28 00:21:35;;;;;;;34.97;12.30;;;17.90;99.90;;;;;;5038874;28;20051;-72
2023/07/28 00:24:01;;;;;;;35.33;12.57;;;17.90;99.90;;;;;;5043480;28;20135;-72
2023/07/28 00:26:26;;;;;;;36.03;13.17;;;17.90;99.90;;;;;;5046918;28;20045;-72
2023/07/28 00:28:52;;;;;;;35.10;12.30;;;17.90;99.90;;;;;;5045429;28;20138;-72
2023/07/28 00:31:18;;;;;;;31.03;12.17;;;17.90;99.90;;;;;;5039681;28;20053;-72
2023/07/28 00:33:43;;;;;;;37.93;11.73;;;17.90;99.90;;;;;;5042197;28;20094;-72
2023/07/28 00:36:09;;;;;;;37.17;12.17;;;17.90;99.90;;;;;;5048867;28;20041;-72
2023/07/28 00:38:35;;;;;;;36.70;12.63;;;17.90;99.90;;;;;;5065487;28;20064;-72
2023/07/28 00:41:00;;;;;;;37.57;12.20;;;17.90;99.90;;;;;;5026446;28;20501;-72
2023/07/28 00:43:26;;;;;;;36.10;12.97;;;17.90;99.90;;;;;;5044360;28;20044;-72
2023/07/28 00:45:52;;;;;;;43.50;14.17;;;17.90;99.90;;;;;;5037271;28;20037;-72
2023/07/28 00:48:20;;;;;;;39.03;13.70;;;17.90;99.90;;;;;;5037406;28;20042;-72
2023/07/28 00:50:48;;;;;;;39.53;12.10;;;17.90;99.90;;;;;;5047513;28;20099;-73
2023/07/28 00:53:14;;;;;;;42.53;12.37;;;17.90;99.90;;;;;;5028640;28;20406;-72
2023/07/28 00:55:40;;;;;;;40.57;11.70;;;17.90;99.90;;;;;;5041795;28;20048;-72
2023/07/28 00:58:06;;;;;;;38.97;11.97;;;17.90;99.90;;;;;;5044366;28;20366;-73
2023/07/28 01:00:32;;;;;;;35.93;10.87;;;17.90;99.90;;;;;;5043686;28;20036;-72
2023/07/28 01:02:58;;;;;;;32.53;11.57;;;17.90;99.90;;;;;;5048001;28;20048;-73
2023/07/28 01:05:30;;;;;;;33.67;12.17;;;17.90;99.90;;;;;;5038688;28;20052;-73
2023/07/28 01:08:05;;;;;;;28.27;9.77;;;17.90;99.90;;;;;;5046967;28;20041;-72
2023/07/28 01:10:32;;;;;;;;;;;17.90;99.90;;;;;;5044827;28;20048;-72
2023/07/28 01:12:58;;;;;;;26.53;10.40;;;17.90;99.90;;;;;;5031491;28;19920;-73
2023/07/28 01:15:25;;;;;;;36.27;10.10;;;17.90;99.90;;;;;;5047903;28;20495;-73
2023/07/28 01:17:51;;;;;;;31.63;9.73;;;17.90;99.90;;;;;;5047487;28;20474;-73
2023/07/28 01:20:17;;;;;;;28.50;9.80;;;17.80;99.90;;;;;;5023770;28;20037;-73
2023/07/28 01:22:55;;;;;;;32.37;10.33;;;17.80;99.90;;;;;;5038277;28;20086;-73
2023/07/28 01:25:33;;;;;;;32.40;10.27;;;17.80;99.90;;;;;;5042082;28;20540;-73
2023/07/28 01:28:00;;;;;;;35.10;9.97;;;17.80;99.90;;;;;;5035397;28;20049;-73
2023/07/28 01:30:27;;;;;;;26.30;9.10;;;17.80;99.90;;;;;;5040609;28;20049;-73
2023/07/28 01:32:57;;;;;;;35.70;9.03;;;17.80;99.90;;;;;;5036483;28;20037;-73
2023/07/28 01:35:24;;;;;;;34.13;9.87;;;17.80;99.90;;;;;;5038747;28;20042;-73
2023/07/28 01:37:50;;;;;;;28.47;8.73;;;17.80;99.90;;;;;;5043875;28;20052;-73
2023/07/28 01:40:20;;;;;;;23.00;7.73;;;17.80;99.90;;;;;;5042108;28;20769;-73
2023/07/28 01:42:46;;;;;;;32.40;7.63;;;17.80;99.90;;;;;;5044086;28;20426;-73
2023/07/28 01:45:12;;;;;;;25.33;7.80;;;17.80;99.90;;;;;;5034938;28;20488;-73
2023/07/28 01:47:38;;;;;;;27.70;7.77;;;17.80;99.90;;;;;;5019402;28;20136;-74
2023/07/28 01:50:04;;;;;;;27.60;7.37;;;17.80;99.90;;;;;;5026920;28;20081;-73
2023/07/28 01:52:29;;;;;;;31.67;8.00;;;17.80;99.90;;;;;;5033908;28;20041;-73
2023/07/28 01:54:55;;;;;;;29.67;7.43;;;17.80;99.90;;;;;;5045419;28;20076;-73
2023/07/28 01:57:21;;;;;;;28.90;8.37;;;17.80;99.90;;;;;;5042535;28;20163;-73
2023/07/28 01:59:47;;;;;;;26.40;7.13;;;17.70;99.90;;;;;;5037989;28;20620;-73
2023/07/28 02:02:12;;;;;;;27.53;6.60;;;17.70;99.90;;;;;;5034440;28;20074;-72
2023/07/28 02:04:38;;;;;;;29.10;6.90;;;17.70;99.90;;;;;;5043881;28;20045;-73
2023/07/28 02:07:04;;;;;;;21.70;6.63;;;17.70;99.90;;;;;;5044557;28;20048;-73
2023/07/28 02:09:29;;;;;;;28.77;6.07;;;17.70;99.90;;;;;;5050827;28;20060;-73
2023/07/28 02:11:55;;;;;;;30.37;6.50;;;17.70;99.90;;;;;;5049459;28;20123;-73
2023/07/28 02:14:21;;;;;;;24.70;6.07;;;17.70;99.90;;;;;;5029498;28;20459;-73
2023/07/28 02:16:46;;;;;;;29.63;6.63;;;17.70;99.90;;;;;;5022922;28;20045;-73
2023/07/28 02:19:12;;;;;;;20.67;6.80;;;17.70;99.90;;;;;;5043947;28;20474;-73
2023/07/28 02:21:38;;;;;;;26.93;7.10;;;17.70;99.90;;;;;;5032974;28;20040;-73
2023/07/28 02:24:04;;;;;;;20.17;7.07;;;17.70;99.90;;;;;;5047579;28;20056;-73
2023/07/28 02:26:30;;;;;;;24.50;7.70;;;17.70;99.90;;;;;;5048290;28;20041;-73
2023/07/28 02:28:55;;;;;;;29.67;7.97;;;17.70;99.90;;;;;;5039095;28;20101;-73
2023/07/28 02:31:21;;;;;;;32.97;7.80;;;17.70;99.90;;;;;;5035699;28;20401;-73
2023/07/28 02:33:47;;;;;;;30.80;8.07;;;17.70;99.90;;;;;;5044969;28;20469;-73
2023/07/28 02:36:12;;;;;;;18.70;6.70;;;17.70;99.90;;;;;;5025963;28;20043;-73
2023/07/28 02:38:38;;;;;;;26.40;6.77;;;17.70;99.90;;;;;;5049490;28;20029;-73
2023/07/28 02:41:04;;;;;;;25.70;6.57;;;17.70;99.90;;;;;;5048682;28;20048;-73
2023/07/28 02:43:30;;;;;;;25.13;7.07;;;17.70;99.90;;;;;;5036353;28;20038;-73
2023/07/28 02:45:57;;;;;;;31.40;6.93;;;17.60;99.90;;;;;;5039231;28;20097;-72
2023/07/28 02:48:23;;;;;;;26.10;5.80;;;17.60;99.90;;;;;;5040574;28;20080;-73
2023/07/28 02:50:50;;;;;;;26.47;6.20;;;17.60;99.90;;;;;;5065083;28;20044;-73
2023/07/28 02:53:16;;;;;;;26.30;6.30;;;17.60;99.90;;;;;;5037563;28;20080;-73
2023/07/28 02:55:43;;;;;;;21.90;5.47;;;17.60;99.90;;;;;;5038492;28;20390;-73
2023/07/28 02:58:09;;;;;;;27.47;6.07;;;17.60;99.90;;;;;;5043550;28;20029;-73
2023/07/28 03:00:42;;;;;;;29.37;5.83;;;17.60;99.90;;;;;;5042810;28;20098;-73
2023/07/28 03:03:12;;;;;;;33.37;6.57;;;17.60;99.90;;;;;;5039128;28;20076;-73
2023/07/28 03:05:39;;;;;;;25.30;5.83;;;17.60;99.90;;;;;;5048864;28;20040;-73
2023/07/28 03:08:05;;;;;;;23.00;5.90;;;17.60;99.90;;;;;;5032854;28;20430;-73
2023/07/28 03:10:32;;;;;;;24.57;5.77;;;17.70;99.90;;;;;;5045057;28;20045;-73
2023/07/28 03:12:57;;;;;;;26.53;6.27;;;17.60;99.90;;;;;;5039673;28;20041;-73
2023/07/28 03:15:23;;;;;;;32.23;6.60;;;17.60;99.90;;;;;;5042004;28;20037;-73
2023/07/28 03:17:54;;;;;;;32.70;6.03;;;17.60;99.90;;;;;;5050703;28;20469;-73
2023/07/28 03:20:20;;;;;;;21.10;5.90;;;17.60;99.90;;;;;;5041272;28;20040;-73
2023/07/28 03:22:46;;;;;;;25.63;5.70;;;17.60;99.90;;;;;;5039581;28;20076;-73
2023/07/28 03:25:12;;;;;;;18.63;5.30;;;17.60;99.90;;;;;;5046476;28;20041;-73
2023/07/28 03:27:38;;;;;;;21.53;5.57;;;17.60;99.90;;;;;;5032254;28;20043;-73
2023/07/28 03:30:06;;;;;;;21.40;5.93;;;17.60;99.90;;;;;;5024466;28;20045;-73
2023/07/28 03:32:32;;;;;;;24.63;6.13;;;17.60;99.90;;;;;;5020741;28;21218;-73
2023/07/28 03:34:58;;;;;;;19.93;5.57;;;17.60;99.90;;;;;;5036020;28;20045;-73
2023/07/28 03:37:24;;;;;;;14.17;5.70;;;17.60;99.90;;;;;;5022435;28;20687;-73
2023/07/28 03:39:49;;;;;;;20.40;5.40;;;17.60;99.90;;;;;;5042115;28;20029;-73
2023/07/28 03:42:15;;;;;;;20.23;5.50;;;17.60;99.90;;;;;;5033112;28;20036;-73
2023/07/28 03:44:41;;;;;;;24.63;6.20;;;17.60;99.90;;;;;;5024337;28;20098;-73
2023/07/28 03:47:07;;;;;;;21.17;5.57;;;17.60;99.90;;;;;;5032583;28;20450;-73
2023/07/28 03:49:33;;;;;;;20.63;5.60;;;17.60;99.90;;;;;;5047268;28;20163;-73
2023/07/28 03:51:59;;;;;;;17.70;5.40;;;17.70;99.90;;;;;;5033860;28;20490;-72
2023/07/28 03:54:24;;;;;;;21.13;6.00;;;17.70;99.90;;;;;;5034984;28;20050;-72
2023/07/28 03:56:50;;;;;;;27.63;7.57;;;17.70;99.90;;;;;;5023498;28;20056;-72
2023/07/28 03:59:16;;;;;;;21.57;6.33;;;17.70;99.90;;;;;;5044926;28;20111;-72
2023/07/28 04:01:42;;;;;;;19.27;5.47;;;17.70;99.90;;;;;;5039814;28;20091;-72
2023/07/28 04:04:08;;;;;;;16.37;5.57;;;17.70;99.90;;;;;;5038781;28;20055;-72
2023/07/28 04:06:43;;;;;;;18.07;5.50;;;17.70;99.90;;;;;;5057606;28;20431;-73
2023/07/28 04:09:09;;;;;;;14.98;4.70;;;17.70;99.90;;;;;;5045119;28;20528;-73
2023/07/28 04:11:35;;;;;;;17.23;5.13;;;17.70;99.90;;;;;;5043611;28;20037;-73
2023/07/28 04:14:02;;;;;;;14.90;4.97;;;17.70;99.90;;;;;;5054895;28;20099;-72
2023/07/28 04:16:27;;;;;;;13.33;4.80;;;17.70;99.90;;;;;;5017667;28;20124;-72
2023/07/28 04:18:53;;;;;;;15.03;5.57;;;17.70;99.90;;;;;;5019463;28;20124;-72
2023/07/28 04:21:19;;;;;;;21.07;5.77;;;17.70;99.90;;;;;;5042964;28;20066;-73
2023/07/28 04:23:44;;;;;;;14.50;5.70;;;17.80;99.90;;;;;;5052611;28;20032;-72
2023/07/28 04:26:10;;;;;;;18.37;5.77;;;17.80;99.90;;;;;;5046209;28;20401;-73
2023/07/28 04:28:36;;;;;;;18.60;5.53;;;17.80;99.90;;;;;;5044788;28;20037;-72
2023/07/28 04:31:02;;;;;;;15.80;5.47;;;17.80;99.90;;;;;;5025541;28;20044;-72
2023/07/28 04:33:27;;;;;;;17.63;5.87;;;17.80;99.90;;;;;;5041005;28;20716;-72
2023/07/28 04:35:53;;;;;;;17.23;6.07;;;17.80;99.90;;;;;;5039717;28;20072;-72
2023/07/28 04:38:18;;;;;;;13.43;6.20;;;17.80;99.90;;;;;;5036775;28;20049;-72
2023/07/28 04:40:44;;;;;;;16.77;6.70;;;17.80;99.90;;;;;;5039056;28;20056;-73
2023/07/28 04:43:10;;;;;;;19.13;7.00;;;17.80;99.90;;;;;;5038332;28;20051;-72
2023/07/28 04:45:36;;;;;;;14.63;6.77;;;17.80;99.90;;;;;;5039949;28;20041;-72
2023/07/28 04:48:02;;;;;;;13.97;7.17;;;17.80;99.90;;;;;;5021471;28;20079;-72
2023/07/28 04:50:28;;;;;;;16.17;7.17;;;17.80;99.90;;;;;;5032895;28;20044;-72
2023/07/28 04:52:54;;;;;;;13.17;6.37;;;17.80;99.90;;;;;;5036853;28;20064;-72
2023/07/28 04:55:20;;;;;;;14.67;7.03;;;17.90;99.90;;;;;;5034931;28;20720;-73
2023/07/28 04:57:46;;;;;;;17.87;7.57;;;17.90;99.90;;;;;;5040921;28;20136;-72
2023/07/28 05:00:12;;;;;;;13.80;6.83;;;17.90;99.90;;;;;;5035378;28;20053;-72
2023/07/28 05:02:38;;;;;;;14.83;7.17;;;17.90;99.90;;;;;;5038878;28;20029;-72
2023/07/28 05:05:04;;;;;;;12.83;6.80;;;17.90;99.90;;;;;;5036786;28;20528;-72
2023/07/28 05:07:30;;;;;;;17.03;7.60;;;17.90;99.90;;;;;;5042523;28;20061;-72
2023/07/28 05:09:56;;;;;;;18.87;7.60;;;17.90;99.90;;;;;;5036052;28;20489;-72
2023/07/28 05:12:21;;;;;;;17.83;8.20;;;17.90;99.90;;;;;;5044782;28;20083;-72
2023/07/28 05:14:47;;;;;;;14.83;7.37;;;18.00;99.90;;;;;;5026718;28;20045;-72
2023/07/28 05:17:13;;;;;;;17.23;8.87;;;17.90;99.90;;;;;;5046021;28;20033;-72
2023/07/28 05:19:38;;;;;;;13.13;8.17;;;17.90;99.90;;;;;;5041163;28;20452;-72
2023/07/28 05:22:06;;;;;;;18.00;8.60;;;17.90;99.90;;;;;;5049260;28;20119;-73
2023/07/28 05:24:33;;;;;;;16.00;9.43;;;17.90;99.90;;;;;;5047062;28;20057;-74
2023/07/28 05:26:59;;;;;;;14.27;9.77;;;17.90;99.90;;;;;;5054773;28;20385;-74
2023/07/28 05:29:24;;;;;;;15.20;10.00;;;18.00;99.90;;;;;;5059596;28;20075;-74
2023/07/28 05:31:50;;;;;;;17.73;10.27;;;18.00;99.90;;;;;;5060585;28;20128;-75
2023/07/28 05:34:16;;;;;;;18.40;10.33;;;18.00;99.90;;;;;;5075372;28;20052;-75
2023/07/28 05:36:44;;;;;;;16.97;10.80;;;18.00;99.90;;;;;;5024153;28;20124;-72
2023/07/28 05:39:09;;;;;;;17.33;10.77;;;18.10;99.90;;;;;;5029342;28;20053;-72
2023/07/28 05:41:37;;;;;;;15.03;10.27;;;18.20;99.90;;;;;;5041231;28;20076;-72
2023/07/28 05:44:03;;;;;;;14.70;10.03;;;18.30;99.90;;;;;;5045413;28;20123;-72
2023/07/28 05:46:29;;;;;;;12.50;8.97;;;18.40;99.90;;;;;;5049962;28;20045;-72
2023/07/28 05:48:56;;;;;;;14.50;9.47;;;18.50;99.90;;;;;;5044153;28;20029;-72
2023/07/28 05:51:22;;;;;;;13.70;9.20;;;18.50;99.90;;;;;;5037564;28;20045;-72
2023/07/28 05:53:49;;;;;;;11.67;9.20;;;18.60;99.90;;;;;;5044146;28;20044;-72
2023/07/28 05:56:14;;;;;;;12.17;9.07;;;18.60;99.90;;;;;;5032651;28;20055;-72
2023/07/28 05:58:40;;;;;;;9.83;8.73;;;18.60;99.90;;;;;;5039996;28;20451;-72
2023/07/28 06:01:06;;;;;;;13.50;9.53;;;18.60;99.90;;;;;;5048446;28;20048;-72
2023/07/28 06:03:32;;;;;;;12.40;8.83;;;18.70;99.90;;;;;;5044044;28;20124;-72
2023/07/28 06:05:57;;;;;;;9.07;8.00;;;18.70;99.90;;;;;;5032981;28;20042;-72
2023/07/28 06:08:23;;;;;;;9.67;7.87;;;18.80;99.90;;;;;;5035890;28;20482;-72
2023/07/28 06:10:49;;;;;;;11.97;8.63;;;18.70;99.90;;;;;;5047216;28;20115;-72
2023/07/28 06:13:15;;;;;;;10.67;8.13;;;18.80;99.90;;;;;;5034317;28;20037;-72
2023/07/28 06:15:41;;;;;;;10.47;8.70;;;18.80;99.90;;;;;;5036491;28;20065;-72
2023/07/28 06:18:07;;;;;;;12.87;9.33;;;18.70;99.90;;;;;;5042912;28;20047;-72
2023/07/28 06:20:34;;;;;;;10.43;8.67;;;18.70;99.90;;;;;;5046969;28;20037;-72
2023/07/28 06:23:00;;;;;;;10.33;9.33;;;18.60;99.90;;;;;;5045834;28;20405;-72
2023/07/28 06:25:26;;;;;;;12.67;9.27;;;18.60;99.90;;;;;;5063725;28;20039;-72
2023/07/28 06:27:52;;;;;;;12.33;8.20;;;18.60;99.90;;;;;;5042434;28;20112;-72
2023/07/28 06:30:18;;;;;;;10.07;8.43;;;18.60;99.90;;;;;;5022063;28;20144;-72
2023/07/28 06:32:44;;;;;;;10.00;8.63;;;18.60;99.90;;;;;;5053242;28;20052;-72
2023/07/28 06:35:09;;;;;;;11.63;8.30;;;18.60;99.90;;;;;;5050100;28;20158;-72
2023/07/28 06:37:38;;;;;;;12.97;8.20;;;18.70;99.90;;;;;;5050007;28;20049;-72
2023/07/28 06:40:09;;;;;;;10.97;7.47;;;18.80;99.90;;;;;;5030897;28;20084;-72
2023/07/28 06:42:36;;;;;;;8.80;6.77;;;18.90;99.90;;;;;;5046211;28;20087;-72
2023/07/28 06:45:03;;;;;;;9.53;7.13;;;19.00;99.90;;;;;;5036121;28;20084;-72
2023/07/28 06:47:29;;;;;;;8.17;7.23;;;19.10;99.90;;;;;;5040454;28;20045;-72
2023/07/28 06:49:55;;;;;;;10.37;8.20;;;19.20;99.90;;;;;;5040544;28;20064;-72
2023/07/28 06:52:20;;;;;;;9.50;7.90;;;19.30;99.90;;;;;;5048121;28;20541;-72
2023/07/28 06:54:49;;;;;;;13.13;7.73;;;19.30;99.90;;;;;;5039243;28;20592;-72
2023/07/28 06:57:15;;;;;;;8.60;7.70;;;19.30;99.90;;;;;;5031054;28;20494;-72
2023/07/28 06:59:41;;;;;;;9.97;8.10;;;19.30;99.90;;;;;;5047580;28;20055;-72
2023/07/28 07:02:07;;;;;;;11.67;8.30;;;19.40;99.90;;;;;;5034803;28;20041;-72
2023/07/28 07:04:32;;;;;;;11.07;8.60;;;19.40;99.90;;;;;;5035693;28;20033;-72
2023/07/28 07:06:58;;;;;;;11.13;9.90;;;19.40;99.90;;;;;;5040042;28;20447;-72
2023/07/28 07:09:25;;;;;;;12.23;9.13;;;19.40;99.90;;;;;;5024772;28;20072;-72
2023/07/28 07:11:51;;;;;;;10.60;9.20;;;19.40;99.90;;;;;;5051350;28;20038;-73
2023/07/28 07:14:16;;;;;;;10.63;9.00;;;19.40;99.90;;;;;;5056831;28;20041;-73
2023/07/28 07:16:44;;;;;;;13.20;10.40;;;19.50;99.90;;;;;;5046999;28;20040;-75
2023/07/28 07:19:09;;;;;;;12.57;9.93;;;19.60;99.90;;;;;;5042858;28;20041;-74
2023/07/28 07:21:35;;;;;;;11.23;9.57;;;19.60;99.90;;;;;;5049308;28;20124;-74
2023/07/28 07:24:05;;;;;;;10.27;9.20;;;19.80;99.90;;;;;;5056539;28;20045;-74
2023/07/28 07:26:31;;;;;;;9.37;8.27;;;19.90;99.90;;;;;;5047676;28;20129;-74
2023/07/28 07:28:57;;;;;;;10.37;8.67;;;20.00;99.90;;;;;;5049431;28;20084;-74
2023/07/28 07:31:23;;;;;;;9.50;7.40;;;20.10;99.90;;;;;;5051492;28;20039;-74
2023/07/28 07:33:49;;;;;;;7.80;7.00;;;20.20;99.90;;;;;;5053288;28;20036;-73
2023/07/28 07:36:16;;;;;;;7.53;6.83;;;20.10;99.90;;;;;;5046059;28;20057;-73
2023/07/28 07:38:43;;;;;;;7.90;7.10;;;20.10;99.90;;;;;;5052694;28;20037;-73
2023/07/28 07:41:11;;;;;;;8.87;6.47;;;20.20;99.90;;;;;;5045147;28;20099;-73
2023/07/28 07:43:36;;;;;;;8.13;6.53;;;20.30;99.50;;;;;;5075110;28;20045;-73
2023/07/28 07:46:02;;;;;;;6.63;6.00;;;20.40;99.50;;;;;;5052782;28;20051;-74
2023/07/28 07:48:28;;;;;;;9.37;6.77;;;20.50;99.10;;;;;;5047770;28;20033;-73
2023/07/28 07:50:53;;;;;;;7.07;6.17;;;20.70;99.90;;;;;;5027449;28;20095;-73
2023/07/28 07:53:20;;;;;;;9.37;6.47;;;20.70;98.20;;;;;;5052671;28;20497;-73
2023/07/28 07:55:45;;;;;;;9.37;5.43;;;20.90;99.60;;;;;;5047434;28;20049;-73
2023/07/28 07:58:11;;;;;;;8.37;5.57;;;21.10;97.00;;;;;;5051835;28;20066;-73
2023/07/28 08:00:38;;;;;;;7.17;6.47;;;21.40;96.90;;;;;;5044652;28;20033;-74
2023/07/28 08:03:05;;;;;;;7.70;5.93;;;21.60;94.80;;;;;;5047477;28;20033;-73
2023/07/28 08:05:33;;;;;;;7.77;6.97;;;21.50;93.90;;;;;;5038451;28;20052;-74
2023/07/28 08:07:59;;;;;;;7.00;5.73;;;21.40;94.20;;;;;;5034768;28;20065;-73
2023/07/28 08:10:25;;;;;;;8.83;6.27;;;21.20;94.80;;;;;;4992497;28;20060;-74
2023/07/28 08:12:51;;;;;;;6.87;6.17;;;21.00;94.40;;;;;;5012894;28;20064;-74
2023/07/28 08:15:19;;;;;;;7.23;5.40;;;21.10;95.60;;;;;;5034000;28;20046;-73
2023/07/28 08:17:45;;;;;;;5.13;4.47;;;21.20;94.00;;;;;;5010199;28;21119;-73
2023/07/28 08:20:12;;;;;;;6.50;4.60;;;21.20;94.00;;;;;;5014221;28;20037;-74
2023/07/28 08:22:38;;;;;;;5.93;4.00;;;21.20;93.50;;;;;;5009104;28;20049;-74
2023/07/28 08:25:05;;;;;;;7.70;3.90;;;21.20;93.80;;;;;;4996822;28;20048;-74
2023/07/28 08:27:30;;;;;;;5.67;4.43;;;21.30;93.10;;;;;;5003407;28;20053;-73
2023/07/28 08:29:56;;;;;;;4.60;3.60;;;21.40;94.60;;;;;;5012379;28;20056;-74
2023/07/28 08:32:22;;;;;;;5.00;3.67;;;21.40;94.10;;;;;;5012818;28;20041;-73
2023/07/28 08:34:48;;;;;;;5.87;3.13;;;21.60;95.00;;;;;;5008548;28;20050;-73
2023/07/28 08:37:14;;;;;;;4.03;2.30;;;21.90;95.00;;;;;;4979684;28;20076;-73
2023/07/28 08:39:40;;;;;;;3.97;3.33;;;22.00;90.00;;;;;;4997776;28;20649;-73
2023/07/28 08:42:06;;;;;;;5.33;3.47;;;21.90;90.70;;;;;;5006466;28;20046;-73
2023/07/28 08:44:33;;;;;;;4.67;2.83;;;21.90;91.90;;;;;;4989942;28;20045;-74
2023/07/28 08:47:01;;;;;;;4.00;2.83;;;21.80;90.20;;;;;;5022346;28;20072;-73
2023/07/28 08:49:27;;;;;;;3.33;2.40;;;21.80;88.90;;;;;;4996475;28;20041;-73
2023/07/28 08:51:58;;;;;;;4.83;2.90;;;22.00;90.00;;;;;;5026157;28;20057;-74
2023/07/28 08:54:23;;;;;;;7.50;3.03;;;22.10;89.60;;;;;;5010651;28;20045;-73
2023/07/28 08:56:51;;;;;;;3.67;2.20;;;22.20;89.80;;;;;;5015431;28;20037;-74
2023/07/28 08:59:25;;;;;;;3.03;2.20;;;22.40;89.20;;;;;;5015401;28;20181;-73
2023/07/28 09:01:52;;;;;;;4.05;1.95;;;22.50;86.40;;;;;;5018445;28;20537;-74
2023/07/28 09:04:18;;;;;;;2.00;1.80;;;22.60;82.60;;;;;;5011789;28;20740;-73
2023/07/28 09:06:52;;;;;;;2.50;2.20;;;22.50;82.10;;;;;;5012809;28;20869;-73
2023/07/28 09:09:23;;;;;;;5.00;2.97;;;22.30;83.40;;;;;;5037176;28;20126;-73
2023/07/28 09:11:53;;;;;;;4.83;2.83;;;22.20;85.00;;;;;;5053404;28;20481;-74
2023/07/28 09:14:23;;;;;;;4.07;2.67;;;22.10;84.50;;;;;;5053225;28;20420;-73
2023/07/28 09:16:49;;;;;;;5.03;3.40;;;22.10;86.20;;;;;;5058697;28;20112;-74
2023/07/28 09:19:15;;;;;;;5.07;3.00;;;22.00;85.50;;;;;;5050310;28;20041;-73
2023/07/28 09:21:56;;;;;;;5.07;2.63;;;21.90;86.90;;;;;;5052010;28;20043;-73
2023/07/28 09:24:22;;;;;;;4.13;2.67;;;21.90;86.70;;;;;;5053225;28;20037;-73
2023/07/28 09:26:50;;;;;;;2.93;2.43;;;21.90;85.40;;;;;;5045801;28;20084;-73
2023/07/28 09:29:27;;;;;;;4.33;2.67;;;21.90;85.60;;;;;;5032182;28;20048;-73
2023/07/28 09:32:02;;;;;;;3.93;2.30;;;22.00;85.90;;;;;;5052559;28;20682;-73
2023/07/28 09:34:28;;;;;;;3.03;2.00;;;22.10;84.90;;;;;;5040252;28;20566;-73
2023/07/28 09:36:55;;;;;;;3.70;2.20;;;22.20;86.20;;;;;;5041062;28;20043;-73
2023/07/28 09:39:22;;;;;;;4.27;2.37;;;22.30;85.50;;;;;;5042073;28;20040;-73
2023/07/28 09:41:48;;;;;;;7.40;2.37;;;22.60;86.70;;;;;;5041816;28;20124;-73
2023/07/28 09:44:15;;;;;;;5.67;2.90;;;22.90;83.40;;;;;;5045284;28;20739;-73
2023/07/28 09:46:51;;;;;;;5.17;2.93;;;23.10;84.00;;;;;;5045880;28;20478;-73
2023/07/28 09:49:35;;;;;;;3.70;2.40;;;23.30;86.00;;;;;;5037368;28;20044;-73
2023/07/28 09:52:08;;;;;;;6.13;2.47;;;23.20;79.00;;;;;;5029107;28;20083;-73
2023/07/28 09:54:39;;;;;;;3.10;2.20;;;23.20;82.20;;;;;;5045532;28;20115;-73
2023/07/28 09:57:12;;;;;;;2.90;1.37;;;23.40;83.50;;;;;;5030964;28;20044;-73
2023/07/28 09:59:40;;;;;;;2.87;1.20;;;23.60;82.60;;;;;;5038116;28;20065;-73
2023/07/28 10:02:06;;;;;;;2.87;1.43;;;23.70;78.80;;;;;;5020945;28;20497;-73
2023/07/28 10:04:33;;;;;;;2.37;1.20;;;23.70;78.70;;;;;;5043341;28;20041;-73
2023/07/28 10:06:59;;;;;;;3.03;1.00;;;23.60;76.50;;;;;;5035469;28;20036;-73
2023/07/28 10:09:27;;;;;;;2.53;1.20;;;23.60;78.10;;;;;;5031118;28;20119;-73
2023/07/28 10:11:53;;;;;;;2.23;1.20;;;23.70;77.30;;;;;;5038972;28;20055;-72
2023/07/28 10:14:31;;;;;;;3.03;1.60;;;23.80;74.00;;;;;;5042196;28;20048;-72
2023/07/28 10:16:58;;;;;;;1.80;1.20;;;23.90;72.30;;;;;;5035093;28;20049;-72
2023/07/28 10:19:27;;;;;;;3.53;1.30;;;23.90;75.90;;;;;;5040289;28;20037;-72
2023/07/28 10:22:07;;;;;;;4.93;1.70;;;23.90;76.10;;;;;;5036254;28;20039;-71
2023/07/28 10:24:55;;;;;;;2.97;1.53;;;23.90;74.10;;;;;;5039140;28;20090;-72
2023/07/28 10:27:43;;;;;;;2.53;1.43;;;23.80;72.40;;;;;;5036453;28;20059;-72
2023/07/28 10:30:13;;;;;;;2.27;1.43;;;23.80;73.80;;;;;;5034774;28;20361;-71
2023/07/28 10:32:44;;;;;;;3.47;1.53;;;23.80;74.20;;;;;;5034586;28;20560;-71
2023/07/28 10:35:13;;;;;;;3.73;1.40;;;23.70;74.00;;;;;;5035734;28;20045;-71
2023/07/28 10:37:42;;;;;;;3.10;1.53;;;23.80;76.60;;;;;;5039279;28;20043;-71
2023/07/28 10:40:36;;;;;;;3.53;1.70;;;24.00;75.10;;;;;;5041398;28;20045;-71
2023/07/28 10:43:04;;;;;;;2.90;1.20;;;24.10;73.50;;;;;;5027500;28;20056;-72
2023/07/28 10:45:31;;;;;;;3.60;1.43;;;24.10;74.70;;;;;;5041573;28;20037;-72
2023/07/28 10:48:00;;;;;;;4.53;1.83;;;24.20;75.60;;;;;;5042253;28;20041;-72
2023/07/28 10:50:31;;;;;;;4.60;1.87;;;24.10;74.10;;;;;;5037323;28;20083;-72
2023/07/28 10:52:59;;;;;;;3.85;1.73;;;24.00;75.00;;;;;;5022679;28;20076;-71
2023/07/28 10:55:27;;;;;;;3.13;1.67;;;24.00;75.90;;;;;;5038821;28;20498;-71
2023/07/28 10:57:54;;;;;;;3.03;1.40;;;24.00;76.20;;;;;;5043314;28;20433;-73
2023/07/28 11:00:23;;;;;;;3.30;2.00;;;24.00;74.40;;;;;;5053173;28;20119;-72
2023/07/28 11:02:54;;;;;;;3.80;1.80;;;24.20;76.10;;;;;;5040816;28;20030;-72
2023/07/28 11:05:23;;;;;;;3.23;1.80;;;24.30;75.50;;;;;;5050945;28;20044;-72
2023/07/28 11:07:51;;;;;;;3.37;2.23;;;24.30;74.50;;;;;;5044637;28;20110;-72
2023/07/28 11:10:18;;;;;;;3.47;2.00;;;24.40;74.80;;;;;;4999782;28;20052;-72
2023/07/28 11:12:46;;;;;;;3.10;2.40;;;24.50;73.40;;;;;;5011275;28;20037;-73
2023/07/28 11:15:13;;;;;;;3.17;2.37;;;24.60;73.20;;;;;;5012254;28;20052;-72
2023/07/28 11:17:40;;;;;;;4.60;1.97;;;24.60;73.40;;;;;;5014209;28;20121;-73
2023/07/28 11:20:22;;;;;;;2.73;1.50;;;24.70;72.30;;;;;;5014740;28;20049;-73
2023/07/28 11:22:59;;;;;;;3.57;1.93;;;24.80;68.90;;;;;;5031992;28;20432;-72
2023/07/28 11:25:28;;;;;;;3.30;1.80;;;24.90;70.00;;;;;;5018431;28;20041;-73
2023/07/28 11:27:55;;;;;;;4.30;2.07;;;24.80;70.20;;;;;;5008478;28;20033;-73
2023/07/28 11:30:22;;;;;;;4.93;2.00;;;24.60;70.10;;;;;;5011011;28;20049;-73
2023/07/28 11:32:50;;;;;;;3.93;2.30;;;24.50;72.00;;;;;;5012573;28;20076;-73
2023/07/28 11:35:18;;;;;;;3.47;2.13;;;24.50;73.00;;;;;;4995034;28;20049;-72
2023/07/28 11:37:46;;;;;;;3.00;2.43;;;24.70;73.70;;;;;;4996477;28;20034;-72
2023/07/28 11:40:16;;;;;;;4.23;2.80;;;24.70;71.00;;;;;;5007264;28;20038;-73
2023/07/28 11:42:47;;;;;;;6.10;2.53;;;24.70;71.90;;;;;;5003951;28;20124;-72
2023/07/28 11:45:15;;;;;;;4.13;2.27;;;25.00;73.00;;;;;;4994280;28;20037;-73
2023/07/28 11:48:02;;;;;;;4.83;2.90;;;25.10;70.90;;;;;;5007845;28;20521;-72
2023/07/28 11:50:35;;;;;;;4.20;2.70;;;25.10;71.40;;;;;;4999087;28;20085;-73
2023/07/28 11:53:06;;;;;;;6.83;3.57;;;25.00;70.00;;;;;;5011002;28;20108;-72
2023/07/28 11:55:33;;;;;;;2.63;2.33;;;25.00;70.40;;;;;;5006777;28;20045;-73
2023/07/28 11:58:01;;;;;;;3.97;2.60;;;24.90;70.90;;;;;;5007349;28;20068;-73
2023/07/28 12:00:40;;;;;;;3.23;2.10;;;25.00;69.20;;;;;;5009437;28;20041;-73
2023/07/28 12:03:13;;;;;;;4.23;2.40;;;25.00;68.10;;;;;;5011406;28;20076;-73
2023/07/28 12:05:40;;;;;;;2.97;2.67;;;24.90;70.70;;;;;;5006228;28;20077;-73
2023/07/28 12:08:09;;;;;;;2.90;2.20;;;24.90;70.60;;;;;;5006442;28;20123;-73
2023/07/28 12:10:35;;;;;;;3.80;2.67;;;25.00;69.20;;;;;;5038628;28;20061;-74
2023/07/28 12:13:06;;;;;;;4.53;3.33;;;25.10;70.90;;;;;;5039318;28;20563;-74
2023/07/28 12:15:33;;;;;;;3.70;2.50;;;25.40;69.00;;;;;;5041294;28;20040;-73
2023/07/28 12:18:13;;;;;;;5.00;3.40;;;25.50;70.70;;;;;;5043789;28;20132;-74
2023/07/28 12:20:47;;;;;;;6.70;3.40;;;25.50;67.80;;;;;;5033695;28;20042;-74
2023/07/28 12:23:15;;;;;;;7.30;3.72;;;25.40;70.00;;;;;;5041546;28;20472;-73
2023/07/28 12:25:41;;;;;;;3.87;3.13;;;25.30;70.40;;;;;;5044511;28;20056;-74
2023/07/28 12:28:07;;;;;;;7.27;3.40;;;25.30;70.90;;;;;;5023659;28;20040;-73
2023/07/28 12:30:34;;;;;;;7.47;4.00;;;25.30;71.10;;;;;;5025967;28;20044;-74
2023/07/28 12:33:00;;;;;;;6.57;3.30;;;25.40;69.80;;;;;;5045179;28;20080;-73
2023/07/28 12:35:30;;;;;;;5.33;3.93;;;25.40;69.90;;;;;;5042450;28;20095;-74
2023/07/28 12:37:59;;;;;;;5.47;3.53;;;25.50;69.80;;;;;;5039534;28;20474;-73
2023/07/28 12:40:26;;;;;;;5.50;3.60;;;25.60;69.80;;;;;;5039404;28;20048;-74
2023/07/28 12:42:52;;;;;;;5.23;4.00;;;25.60;68.40;;;;;;5044936;28;20444;-74